createdAt,value
2023-04-22T05:02:57.583Z,97553.56
2023-04-22T05:07:59.547Z,97562.63
2023-04-22T05:13:04.138Z,97557.59
2023-04-22T05:18:06.697Z,97563.75
2023-04-22T05:23:08.363Z,97575.06
2023-04-22T05:28:09.966Z,97572.19
2023-04-22T05:33:19.661Z,97573.66
2023-04-22T05:38:21.181Z,97572.09
2023-04-22T05:43:23.455Z,97570.31
2023-04-22T05:48:34.363Z,97568.75
2023-04-22T05:53:42.032Z,97576.47
2023-04-22T05:58:44.982Z,97574.34
2023-04-22T06:03:51.864Z,97580.81
2023-04-22T06:08:53.786Z,97582.34
2023-04-22T06:13:55.400Z,97585.34
2023-04-22T06:18:57.146Z,97592.47
2023-04-22T06:24:04.270Z,97580.06
2023-04-22T06:29:05.967Z,97577.53
2023-04-22T06:34:08.950Z,97576.84
2023-04-22T06:39:11.052Z,97572.41
2023-04-22T06:44:22.724Z,97578.66
2023-04-22T06:49:53.524Z,97586.41
2023-04-22T06:55:17.773Z,97591.59
2023-04-22T07:00:20.190Z,97586.13
2023-04-22T07:05:21.900Z,97593.41
2023-04-22T07:10:24.737Z,97590.59
2023-04-22T07:15:58.318Z,97587.78
2023-04-22T07:20:59.877Z,97580.44
2023-04-22T07:26:01.368Z,97576.34
2023-04-22T07:31:03.190Z,97569.97
2023-04-22T07:36:05.298Z,97573.91
2023-04-22T07:41:06.760Z,97581.53
2023-04-22T07:46:08.322Z,97576.38
2023-04-22T07:51:09.968Z,97573.88
2023-04-22T07:56:11.587Z,97566.00
2023-04-22T08:01:13.053Z,97572.81
2023-04-22T08:06:14.669Z,97570.69
2023-04-22T08:11:16.161Z,97570.03
2023-04-22T08:16:17.870Z,97562.94
2023-04-22T08:21:19.322Z,97570.34
2023-04-22T08:26:21.198Z,97567.34
2023-04-22T08:31:22.819Z,97568.13
2023-04-22T08:36:25.877Z,97561.41
2023-04-22T08:41:27.616Z,97560.09
2023-04-22T08:46:30.827Z,97557.13
2023-04-22T08:51:35.393Z,97557.81
2023-04-22T08:56:40.734Z,97540.25
2023-04-22T09:01:43.204Z,97543.78
2023-04-22T09:06:44.727Z,97546.34
2023-04-22T09:11:46.219Z,97541.03
2023-04-22T09:16:48.583Z,97544.16
2023-04-22T09:21:52.063Z,97535.72
2023-04-22T09:26:57.275Z,97531.31
2023-04-22T09:31:58.758Z,97531.00
2023-04-22T09:37:00.341Z,97517.56
2023-04-22T09:42:01.967Z,97515.72
2023-04-22T09:47:03.513Z,97507.69
2023-04-22T09:52:05.890Z,97495.06
2023-04-22T09:57:13.540Z,97505.75
2023-04-22T10:02:15.372Z,97499.31
2023-04-22T10:07:17.470Z,97508.72
2023-04-22T10:12:26.085Z,97484.69
2023-04-22T10:17:33.701Z,97486.56
2023-04-22T10:22:35.751Z,97483.28
2023-04-22T10:27:39.097Z,97486.19
2023-04-22T10:32:40.711Z,97486.91
2023-04-22T10:37:43.328Z,97481.13
2023-04-22T10:42:52.057Z,97479.16
2023-04-22T10:47:53.713Z,97488.53
2023-04-22T10:52:57.621Z,97478.41
2023-04-22T10:57:59.432Z,97479.06
2023-04-22T11:03:10.840Z,97476.22
2023-04-22T11:08:16.584Z,97467.47
2023-04-22T11:13:20.436Z,97466.72
2023-04-22T11:18:26.386Z,97472.09
2023-04-22T11:23:28.762Z,97471.44
2023-04-22T11:28:30.717Z,97472.38
2023-04-22T11:33:34.484Z,97468.22
2023-04-22T11:38:36.026Z,97467.13
2023-04-22T11:43:46.827Z,97451.50
2023-04-22T11:48:48.279Z,97466.16
2023-04-22T11:53:51.161Z,97452.00
2023-04-22T11:58:52.600Z,97450.22
2023-04-22T12:04:00.816Z,97453.56
2023-04-22T12:09:02.574Z,97452.34
2023-04-22T12:14:11.486Z,97444.06
2023-04-22T12:19:13.236Z,97448.53
2023-04-22T12:24:15.013Z,97432.38
2023-04-22T12:29:16.440Z,97429.25
2023-04-22T12:34:17.935Z,97424.00
2023-04-22T12:39:19.717Z,97433.66
2023-04-22T12:44:22.512Z,97426.72
2023-04-22T12:49:25.954Z,97414.91
2023-04-22T12:54:27.410Z,97415.03
2023-04-22T12:59:28.896Z,97413.81
2023-04-22T13:04:30.456Z,97407.03
2023-04-22T13:09:31.917Z,97406.72
2023-04-22T13:14:33.374Z,97401.06
2023-04-22T13:19:35.252Z,97392.09
2023-04-22T13:24:36.805Z,97395.16
2023-04-22T13:29:38.398Z,97388.25
2023-04-22T13:34:40.138Z,97390.63
2023-04-22T13:39:42.082Z,97375.56
2023-04-22T13:44:43.703Z,97385.97
2023-04-22T13:49:45.275Z,97371.72
2023-04-22T13:54:46.715Z,97373.22
2023-04-22T13:59:49.444Z,97363.09
2023-04-22T14:04:50.961Z,97363.59
2023-04-22T14:09:52.364Z,97347.09
2023-04-22T14:14:53.797Z,97349.09
2023-04-22T14:19:55.260Z,97337.69
2023-04-22T14:24:56.782Z,97331.16
2023-04-22T14:29:58.351Z,97325.97
2023-04-22T14:34:59.920Z,97324.63
2023-04-22T14:40:01.619Z,97311.28
2023-04-22T14:45:03.368Z,97319.94
2023-04-22T14:50:05.443Z,97314.56
2023-04-22T14:55:19.341Z,97315.81
2023-04-22T15:00:27.359Z,97311.25
2023-04-22T15:05:28.803Z,97308.22
2023-04-22T15:10:30.359Z,97298.88
2023-04-22T15:15:31.902Z,97289.97
2023-04-22T15:20:33.424Z,97281.53
2023-04-22T15:25:35.624Z,97281.97
2023-04-22T15:30:37.240Z,97279.00
2023-04-22T15:35:38.595Z,97267.34
2023-04-22T15:40:40.074Z,97269.84
2023-04-22T15:45:41.780Z,97257.94
2023-04-22T15:50:43.365Z,97255.03
2023-04-22T15:55:45.803Z,97257.97
2023-04-22T16:00:48.380Z,97259.88
2023-04-22T16:05:49.935Z,97256.59
2023-04-22T16:10:51.517Z,97259.81
2023-04-22T16:15:53.027Z,97243.84
2023-04-22T16:20:54.741Z,97237.03
2023-04-22T16:25:56.190Z,97236.22
2023-04-22T16:30:57.673Z,97225.06
2023-04-22T16:35:59.122Z,97226.44
2023-04-22T16:41:00.703Z,97216.63
2023-04-22T16:46:02.473Z,97224.75
2023-04-22T16:51:04.223Z,97217.22
2023-04-22T16:56:05.909Z,97212.88
2023-04-22T17:01:07.366Z,97217.13
2023-04-22T17:06:08.844Z,97223.00
2023-04-22T17:11:11.138Z,97222.03
2023-04-22T17:16:12.654Z,97219.97
2023-04-22T17:21:14.212Z,97219.19
2023-04-22T17:26:15.860Z,97217.53
2023-04-22T17:31:18.037Z,97216.94
2023-04-22T17:36:20.147Z,97217.69
2023-04-22T17:41:21.905Z,97214.59
2023-04-22T17:46:23.356Z,97222.66
2023-04-22T17:51:24.906Z,97216.38
2023-04-22T17:56:26.498Z,97218.19
2023-04-22T18:01:29.558Z,97216.47
2023-04-22T18:06:32.339Z,97226.91
2023-04-22T18:11:34.160Z,97227.59
2023-04-22T18:16:35.935Z,97227.84
2023-04-22T18:21:41.646Z,97235.03
2023-04-22T18:26:49.177Z,97248.44
2023-04-22T18:31:50.754Z,97246.25
2023-04-22T18:36:52.332Z,97245.44
2023-04-22T18:41:54.012Z,97248.41
2023-04-22T18:46:55.620Z,97246.16
2023-04-22T18:51:57.426Z,97246.75
2023-04-22T18:56:58.850Z,97250.97
2023-04-22T19:02:00.551Z,97250.38
2023-04-22T19:07:02.032Z,97244.66
2023-04-22T19:12:04.073Z,97244.88
2023-04-22T19:17:05.548Z,97239.97
2023-04-22T19:22:07.127Z,97242.50
2023-04-22T19:27:12.308Z,97231.84
2023-04-22T19:32:13.824Z,97233.81
2023-04-22T19:37:15.936Z,97232.88
2023-04-22T19:42:18.323Z,97229.47
2023-04-22T19:47:19.826Z,97223.38
2023-04-22T19:52:21.965Z,97221.63
2023-04-22T19:57:23.973Z,97216.91
2023-04-22T20:02:25.823Z,97211.19
2023-04-22T20:07:28.542Z,97211.66
2023-04-22T20:12:30.745Z,97210.69
2023-04-22T20:17:35.750Z,97199.44
2023-04-22T20:22:38.007Z,97203.97
2023-04-22T20:27:40.058Z,97203.13
2023-04-22T20:32:42.137Z,97204.59
2023-04-22T20:37:46.412Z,97195.38
2023-04-22T20:42:47.835Z,97197.34
2023-04-22T20:47:49.315Z,97191.00
2023-04-22T20:52:51.988Z,97191.06
2023-04-22T20:57:53.443Z,97181.22
2023-04-22T21:02:55.780Z,97171.56
2023-04-22T21:07:59.971Z,97170.59
2023-04-22T21:13:01.707Z,97168.53
2023-04-22T21:18:04.986Z,97168.31
2023-04-22T21:23:07.740Z,97170.75
2023-04-22T21:28:09.558Z,97162.25
2023-04-22T21:33:11.006Z,97167.78
2023-04-22T21:38:13.814Z,97159.81
2023-04-22T21:43:15.324Z,97158.81
2023-04-22T21:48:16.901Z,97162.31
2023-04-22T21:53:20.510Z,97152.59
2023-04-22T21:58:22.317Z,97159.81
